sensor_id;sensor_type;location;lat;lon;timestamp;pressure;altitude;pressure_sealevel;temperature;humidity
8286;BME280;4181;43.416;24.598;2023-03-12T00:00:32;99291.69;;;8.50;100.00
8286;BME280;4181;43.416;24.598;2023-03-12T00:02:57;99312.06;;;8.53;100.00
8286;BME280;4181;43.416;24.598;2023-03-12T00:05:24;99288.66;;;8.47;100.00
8286;BME280;4181;43.416;24.598;2023-03-12T00:07:52;99306.91;;;8.51;100.00
8286;BME280;4181;43.416;24.598;2023-03-12T00:10:18;99313.91;;;8.42;100.00
8286;BME280;4181;43.416;24.598;2023-03-12T00:12:44;99307.59;;;8.37;100.00
8286;BME280;4181;43.416;24.598;2023-03-12T00:15:10;99297.19;;;8.29;100.00
8286;BME280;4181;43.416;24.598;2023-03-12T00:17:35;99319.19;;;8.27;100.00
8286;BME280;4181;43.416;24.598;2023-03-12T00:20:01;99314.25;;;8.24;100.00
8286;BME280;4181;43.416;24.598;2023-03-12T00:22:27;99318.53;;;8.20;100.00
8286;BME280;4181;43.416;24.598;2023-03-12T00:24:55;99327.59;;;8.26;100.00
8286;BME280;4181;43.416;24.598;2023-03-12T00:27:21;99314.72;;;8.21;100.00
8286;BME280;4181;43.416;24.598;2023-03-12T00:29:47;99339.44;;;8.20;100.00
8286;BME280;4181;43.416;24.598;2023-03-12T00:32:12;99348.41;;;8.20;100.00
8286;BME280;4181;43.416;24.598;2023-03-12T00:34:38;99336.19;;;8.18;100.00
8286;BME280;4181;43.416;24.598;2023-03-12T00:37:03;99329.06;;;8.38;100.00
8286;BME280;4181;43.416;24.598;2023-03-12T00:39:28;99323.78;;;8.27;100.00
8286;BME280;4181;43.416;24.598;2023-03-12T00:41:54;99328.25;;;8.38;100.00
8286;BME280;4181;43.416;24.598;2023-03-12T00:44:19;99323.28;;;8.30;100.00
8286;BME280;4181;43.416;24.598;2023-03-12T00:46:45;99320.16;;;8.21;100.00
8286;BME280;4181;43.416;24.598;2023-03-12T00:49:10;99328.50;;;8.36;100.00
8286;BME280;4181;43.416;24.598;2023-03-12T00:51:36;99337.75;;;8.35;100.00
8286;BME280;4181;43.416;24.598;2023-03-12T00:54:03;99324.16;;;8.14;100.00
8286;BME280;4181;43.416;24.598;2023-03-12T00:56:28;99336.88;;;8.08;100.00
8286;BME280;4181;43.416;24.598;2023-03-12T00:58:54;99324.38;;;8.07;100.00
8286;BME280;4181;43.416;24.598;2023-03-12T01:01:19;99340.28;;;7.99;100.00
8286;BME280;4181;43.416;24.598;2023-03-12T01:03:45;99349.06;;;8.06;100.00
8286;BME280;4181;43.416;24.598;2023-03-12T01:06:11;99352.47;;;7.96;100.00
8286;BME280;4181;43.416;24.598;2023-03-12T01:08:36;99341.44;;;8.03;100.00
8286;BME280;4181;43.416;24.598;2023-03-12T01:11:02;99338.03;;;7.91;100.00
8286;BME280;4181;43.416;24.598;2023-03-12T01:13:28;99346.88;;;8.03;100.00
8286;BME280;4181;43.416;24.598;2023-03-12T01:15:54;99332.72;;;8.01;100.00
8286;BME280;4181;43.416;24.598;2023-03-12T01:18:20;99343.31;;;8.02;100.00
8286;BME280;4181;43.416;24.598;2023-03-12T01:20:46;99355.81;;;8.03;100.00
8286;BME280;4181;43.416;24.598;2023-03-12T01:23:11;99351.47;;;8.02;100.00
8286;BME280;4181;43.416;24.598;2023-03-12T01:25:37;99352.19;;;7.93;100.00
8286;BME280;4181;43.416;24.598;2023-03-12T01:28:03;99355.38;;;7.90;100.00
8286;BME280;4181;43.416;24.598;2023-03-12T01:30:29;99344.69;;;7.83;100.00
8286;BME280;4181;43.416;24.598;2023-03-12T01:32:54;99320.59;;;7.65;100.00
8286;BME280;4181;43.416;24.598;2023-03-12T01:35:20;99334.81;;;7.72;100.00
8286;BME280;4181;43.416;24.598;2023-03-12T01:37:45;99335.56;;;7.67;100.00
8286;BME280;4181;43.416;24.598;2023-03-12T01:40:19;99343.00;;;7.77;100.00
8286;BME280;4181;43.416;24.598;2023-03-12T01:42:52;99357.59;;;7.71;100.00
8286;BME280;4181;43.416;24.598;2023-03-12T01:48:20;99329.09;;;7.52;100.00
8286;BME280;4181;43.416;24.598;2023-03-12T01:50:46;99356.59;;;7.77;100.00
8286;BME280;4181;43.416;24.598;2023-03-12T01:53:12;99364.28;;;7.85;100.00
8286;BME280;4181;43.416;24.598;2023-03-12T01:55:38;99346.50;;;7.72;100.00
8286;BME280;4181;43.416;24.598;2023-03-12T01:58:03;99356.25;;;7.73;100.00
8286;BME280;4181;43.416;24.598;2023-03-12T02:00:31;99364.47;;;7.79;100.00
8286;BME280;4181;43.416;24.598;2023-03-12T02:03:03;99368.34;;;7.83;100.00
8286;BME280;4181;43.416;24.598;2023-03-12T02:08:10;99379.19;;;7.61;100.00
8286;BME280;4181;43.416;24.598;2023-03-12T02:10:35;99382.44;;;7.63;100.00
8286;BME280;4181;43.416;24.598;2023-03-12T02:13:01;99380.81;;;7.62;100.00
8286;BME280;4181;43.416;24.598;2023-03-12T02:15:27;99373.22;;;7.42;100.00
8286;BME280;4181;43.416;24.598;2023-03-12T02:17:52;99391.38;;;7.42;100.00
8286;BME280;4181;43.416;24.598;2023-03-12T02:25:51;99402.25;;;7.42;100.00
8286;BME280;4181;43.416;24.598;2023-03-12T02:28:20;99402.56;;;7.45;100.00
8286;BME280;4181;43.416;24.598;2023-03-12T02:30:49;99394.28;;;7.35;100.00
8286;BME280;4181;43.416;24.598;2023-03-12T02:33:16;99407.75;;;7.30;100.00
8286;BME280;4181;43.416;24.598;2023-03-12T02:35:42;99373.16;;;7.21;100.00
8286;BME280;4181;43.416;24.598;2023-03-12T02:40:54;99419.19;;;7.32;100.00
8286;BME280;4181;43.416;24.598;2023-03-12T02:43:24;99426.34;;;7.22;100.00
8286;BME280;4181;43.416;24.598;2023-03-12T02:45:49;99432.84;;;7.21;100.00
8286;BME280;4181;43.416;24.598;2023-03-12T02:48:15;99441.53;;;7.23;100.00
8286;BME280;4181;43.416;24.598;2023-03-12T02:50:40;99442.78;;;7.32;100.00
8286;BME280;4181;43.416;24.598;2023-03-12T02:53:06;99436.03;;;7.34;100.00
8286;BME280;4181;43.416;24.598;2023-03-12T02:55:32;99432.19;;;7.14;100.00
8286;BME280;4181;43.416;24.598;2023-03-12T02:57:57;99444.06;;;7.13;100.00
8286;BME280;4181;43.416;24.598;2023-03-12T03:00:23;99453.97;;;7.19;100.00
8286;BME280;4181;43.416;24.598;2023-03-12T03:02:48;99458.06;;;7.38;100.00
8286;BME280;4181;43.416;24.598;2023-03-12T03:05:14;99463.56;;;7.26;100.00
8286;BME280;4181;43.416;24.598;2023-03-12T03:07:39;99464.22;;;7.17;100.00
8286;BME280;4181;43.416;24.598;2023-03-12T03:10:05;99442.19;;;6.97;100.00
8286;BME280;4181;43.416;24.598;2023-03-12T03:12:32;99472.78;;;7.09;100.00
8286;BME280;4181;43.416;24.598;2023-03-12T03:14:58;99466.69;;;7.02;100.00
8286;BME280;4181;43.416;24.598;2023-03-12T03:17:24;99474.25;;;7.16;100.00
8286;BME280;4181;43.416;24.598;2023-03-12T03:19:50;99475.41;;;7.04;100.00
8286;BME280;4181;43.416;24.598;2023-03-12T03:22:17;99468.00;;;6.99;100.00
8286;BME280;4181;43.416;24.598;2023-03-12T03:24:43;99477.94;;;6.94;100.00
8286;BME280;4181;43.416;24.598;2023-03-12T03:27:08;99499.41;;;7.12;100.00
8286;BME280;4181;43.416;24.598;2023-03-12T03:29:34;99479.19;;;6.75;100.00
8286;BME280;4181;43.416;24.598;2023-03-12T03:31:59;99500.34;;;6.89;100.00
8286;BME280;4181;43.416;24.598;2023-03-12T03:34:25;99498.34;;;6.85;100.00
8286;BME280;4181;43.416;24.598;2023-03-12T03:36:50;99507.50;;;6.67;100.00
8286;BME280;4181;43.416;24.598;2023-03-12T03:39:16;99512.59;;;6.64;100.00
8286;BME280;4181;43.416;24.598;2023-03-12T03:41:41;99504.94;;;6.61;100.00
8286;BME280;4181;43.416;24.598;2023-03-12T03:44:07;99529.06;;;6.74;100.00
8286;BME280;4181;43.416;24.598;2023-03-12T03:46:33;99525.22;;;6.58;100.00
8286;BME280;4181;43.416;24.598;2023-03-12T03:49:00;99526.50;;;6.67;100.00
8286;BME280;4181;43.416;24.598;2023-03-12T03:51:26;99530.53;;;6.81;100.00
8286;BME280;4181;43.416;24.598;2023-03-12T03:53:51;99542.22;;;6.82;100.00
8286;BME280;4181;43.416;24.598;2023-03-12T03:56:17;99542.06;;;6.88;100.00
8286;BME280;4181;43.416;24.598;2023-03-12T03:58:43;99544.53;;;6.90;100.00
8286;BME280;4181;43.416;24.598;2023-03-12T04:01:11;99554.34;;;6.91;100.00
8286;BME280;4181;43.416;24.598;2023-03-12T04:03:37;99553.50;;;6.90;100.00
8286;BME280;4181;43.416;24.598;2023-03-12T04:06:03;99557.31;;;6.78;100.00
8286;BME280;4181;43.416;24.598;2023-03-12T04:08:30;99570.75;;;6.84;100.00
8286;BME280;4181;43.416;24.598;2023-03-12T04:10:57;99581.16;;;6.76;100.00
8286;BME280;4181;43.416;24.598;2023-03-12T04:13:22;99586.50;;;6.59;100.00
8286;BME280;4181;43.416;24.598;2023-03-12T04:15:50;99588.97;;;6.61;100.00
8286;BME280;4181;43.416;24.598;2023-03-12T04:18:15;99577.78;;;6.57;100.00
8286;BME280;4181;43.416;24.598;2023-03-12T04:20:41;99588.84;;;6.67;100.00
8286;BME280;4181;43.416;24.598;2023-03-12T04:23:07;99592.25;;;6.74;100.00
8286;BME280;4181;43.416;24.598;2023-03-12T04:25:33;99582.38;;;6.57;100.00
8286;BME280;4181;43.416;24.598;2023-03-12T04:27:58;99612.31;;;6.50;100.00
8286;BME280;4181;43.416;24.598;2023-03-12T04:30:24;99605.22;;;6.61;100.00
8286;BME280;4181;43.416;24.598;2023-03-12T04:32:50;99592.72;;;6.60;100.00
8286;BME280;4181;43.416;24.598;2023-03-12T04:35:15;99593.28;;;6.73;100.00
8286;BME280;4181;43.416;24.598;2023-03-12T04:37:41;99604.63;;;6.70;100.00
8286;BME280;4181;43.416;24.598;2023-03-12T04:40:07;99614.84;;;6.80;100.00
8286;BME280;4181;43.416;24.598;2023-03-12T04:42:34;99609.56;;;6.62;100.00
8286;BME280;4181;43.416;24.598;2023-03-12T04:45:00;99611.00;;;6.53;100.00
8286;BME280;4181;43.416;24.598;2023-03-12T04:47:26;99629.75;;;6.54;100.00
8286;BME280;4181;43.416;24.598;2023-03-12T04:49:51;99630.31;;;6.56;100.00
8286;BME280;4181;43.416;24.598;2023-03-12T04:52:17;99604.75;;;6.64;100.00
8286;BME280;4181;43.416;24.598;2023-03-12T04:54:43;99616.22;;;6.94;100.00
8286;BME280;4181;43.416;24.598;2023-03-12T04:57:08;99621.66;;;6.94;100.00
8286;BME280;4181;43.416;24.598;2023-03-12T04:59:34;99609.25;;;6.98;100.00
8286;BME280;4181;43.416;24.598;2023-03-12T05:01:59;99632.06;;;7.13;100.00
8286;BME280;4181;43.416;24.598;2023-03-12T05:04:25;99634.75;;;7.25;100.00
8286;BME280;4181;43.416;24.598;2023-03-12T05:06:50;99618.50;;;7.41;100.00
8286;BME280;4181;43.416;24.598;2023-03-12T05:09:16;99638.94;;;7.60;100.00
8286;BME280;4181;43.416;24.598;2023-03-12T05:11:41;99619.81;;;7.39;100.00
8286;BME280;4181;43.416;24.598;2023-03-12T05:14:10;99647.53;;;7.69;100.00
8286;BME280;4181;43.416;24.598;2023-03-12T05:16:35;99650.16;;;7.64;100.00
8286;BME280;4181;43.416;24.598;2023-03-12T05:19:01;99653.06;;;7.74;100.00
8286;BME280;4181;43.416;24.598;2023-03-12T05:21:26;99645.31;;;7.83;100.00
8286;BME280;4181;43.416;24.598;2023-03-12T05:23:52;99669.69;;;7.94;100.00
8286;BME280;4181;43.416;24.598;2023-03-12T05:26:20;99672.06;;;7.91;100.00
8286;BME280;4181;43.416;24.598;2023-03-12T05:28:47;99674.56;;;8.09;100.00
8286;BME280;4181;43.416;24.598;2023-03-12T05:31:13;99663.03;;;8.18;100.00
8286;BME280;4181;43.416;24.598;2023-03-12T05:33:39;99668.94;;;7.99;100.00
8286;BME280;4181;43.416;24.598;2023-03-12T05:36:05;99686.88;;;8.00;100.00
8286;BME280;4181;43.416;24.598;2023-03-12T05:38:31;99720.94;;;7.74;100.00
8286;BME280;4181;43.416;24.598;2023-03-12T05:40:57;99709.75;;;7.87;100.00
8286;BME280;4181;43.416;24.598;2023-03-12T05:43:25;99720.25;;;7.67;100.00
8286;BME280;4181;43.416;24.598;2023-03-12T05:45:51;99724.38;;;7.86;100.00
8286;BME280;4181;43.416;24.598;2023-03-12T05:48:17;99729.13;;;7.91;100.00
8286;BME280;4181;43.416;24.598;2023-03-12T05:50:43;99694.53;;;7.86;100.00
8286;BME280;4181;43.416;24.598;2023-03-12T05:53:09;99711.06;;;7.85;100.00
8286;BME280;4181;43.416;24.598;2023-03-12T05:55:38;99724.75;;;8.06;100.00
8286;BME280;4181;43.416;24.598;2023-03-12T05:58:05;99731.63;;;8.09;100.00
8286;BME280;4181;43.416;24.598;2023-03-12T06:00:32;99730.28;;;8.11;100.00
8286;BME280;4181;43.416;24.598;2023-03-12T06:02:59;99743.22;;;8.04;100.00
8286;BME280;4181;43.416;24.598;2023-03-12T06:05:25;99752.03;;;8.11;100.00
8286;BME280;4181;43.416;24.598;2023-03-12T06:07:50;99749.00;;;8.08;100.00
8286;BME280;4181;43.416;24.598;2023-03-12T06:10:16;99733.81;;;7.95;100.00
8286;BME280;4181;43.416;24.598;2023-03-12T06:12:43;99757.38;;;7.78;100.00
8286;BME280;4181;43.416;24.598;2023-03-12T06:15:10;99747.94;;;7.81;100.00
8286;BME280;4181;43.416;24.598;2023-03-12T06:17:36;99774.44;;;7.90;100.00
8286;BME280;4181;43.416;24.598;2023-03-12T06:20:01;99763.19;;;7.70;100.00
8286;BME280;4181;43.416;24.598;2023-03-12T06:22:27;99790.34;;;7.70;100.00
8286;BME280;4181;43.416;24.598;2023-03-12T06:24:53;99792.63;;;7.90;100.00
8286;BME280;4181;43.416;24.598;2023-03-12T06:27:19;99765.19;;;7.74;100.00
8286;BME280;4181;43.416;24.598;2023-03-12T06:29:44;99779.88;;;7.90;100.00
8286;BME280;4181;43.416;24.598;2023-03-12T06:32:11;99780.22;;;7.94;100.00
8286;BME280;4181;43.416;24.598;2023-03-12T06:34:37;99799.59;;;7.97;100.00
8286;BME280;4181;43.416;24.598;2023-03-12T06:37:02;99810.91;;;8.06;100.00
8286;BME280;4181;43.416;24.598;2023-03-12T06:39:28;99808.00;;;8.24;100.00
8286;BME280;4181;43.416;24.598;2023-03-12T06:41:54;99807.72;;;8.53;100.00
8286;BME280;4181;43.416;24.598;2023-03-12T06:44:20;99806.25;;;8.62;100.00
8286;BME280;4181;43.416;24.598;2023-03-12T06:46:45;99777.38;;;8.61;100.00
8286;BME280;4181;43.416;24.598;2023-03-12T06:49:11;99794.84;;;8.98;100.00
8286;BME280;4181;43.416;24.598;2023-03-12T06:51:37;99801.94;;;9.16;100.00
8286;BME280;4181;43.416;24.598;2023-03-12T06:54:02;99806.81;;;9.36;100.00
8286;BME280;4181;43.416;24.598;2023-03-12T06:56:29;99814.47;;;9.39;100.00
8286;BME280;4181;43.416;24.598;2023-03-12T06:58:55;99819.72;;;9.24;100.00
8286;BME280;4181;43.416;24.598;2023-03-12T07:01:21;99802.44;;;8.96;100.00
8286;BME280;4181;43.416;24.598;2023-03-12T07:03:46;99821.84;;;9.22;100.00
8286;BME280;4181;43.416;24.598;2023-03-12T07:06:14;99824.84;;;9.04;100.00
8286;BME280;4181;43.416;24.598;2023-03-12T07:08:40;99810.16;;;9.21;100.00
8286;BME280;4181;43.416;24.598;2023-03-12T07:11:05;99816.06;;;9.35;100.00
8286;BME280;4181;43.416;24.598;2023-03-12T07:13:31;99853.53;;;9.28;100.00
8286;BME280;4181;43.416;24.598;2023-03-12T07:15:56;99846.94;;;9.24;100.00
8286;BME280;4181;43.416;24.598;2023-03-12T07:18:22;99839.22;;;8.99;100.00
8286;BME280;4181;43.416;24.598;2023-03-12T07:20:47;99826.19;;;9.01;100.00
8286;BME280;4181;43.416;24.598;2023-03-12T07:23:13;99834.41;;;9.23;100.00
8286;BME280;4181;43.416;24.598;2023-03-12T07:25:40;99833.22;;;9.35;100.00
8286;BME280;4181;43.416;24.598;2023-03-12T07:28:06;99821.75;;;9.33;100.00
8286;BME280;4181;43.416;24.598;2023-03-12T07:30:32;99830.97;;;9.49;100.00
8286;BME280;4181;43.416;24.598;2023-03-12T07:33:19;99817.09;;;9.72;100.00
8286;BME280;4181;43.416;24.598;2023-03-12T07:35:46;99822.75;;;9.87;100.00
8286;BME280;4181;43.416;24.598;2023-03-12T07:38:12;99822.56;;;9.72;100.00
8286;BME280;4181;43.416;24.598;2023-03-12T07:40:38;99805.81;;;9.85;100.00
8286;BME280;4181;43.416;24.598;2023-03-12T07:43:04;99793.81;;;10.07;100.00
8286;BME280;4181;43.416;24.598;2023-03-12T07:45:36;99812.41;;;10.10;100.00
8286;BME280;4181;43.416;24.598;2023-03-12T07:48:02;99805.50;;;10.03;100.00
8286;BME280;4181;43.416;24.598;2023-03-12T07:50:28;99814.53;;;10.30;100.00
8286;BME280;4181;43.416;24.598;2023-03-12T07:52:53;99810.22;;;10.34;100.00
8286;BME280;4181;43.416;24.598;2023-03-12T07:55:19;99817.25;;;10.30;100.00
8286;BME280;4181;43.416;24.598;2023-03-12T07:57:44;99797.00;;;10.21;100.00
8286;BME280;4181;43.416;24.598;2023-03-12T08:00:11;99822.81;;;10.40;100.00
8286;BME280;4181;43.416;24.598;2023-03-12T08:02:37;99818.16;;;10.36;100.00
8286;BME280;4181;43.416;24.598;2023-03-12T08:05:02;99845.72;;;10.39;100.00
8286;BME280;4181;43.416;24.598;2023-03-12T08:07:29;99861.53;;;9.94;100.00
8286;BME280;4181;43.416;24.598;2023-03-12T08:09:57;99884.28;;;9.83;100.00
8286;BME280;4181;43.416;24.598;2023-03-12T08:12:23;99873.88;;;9.80;100.00
8286;BME280;4181;43.416;24.598;2023-03-12T08:14:48;99890.28;;;10.06;100.00
8286;BME280;4181;43.416;24.598;2023-03-12T08:17:14;99889.31;;;10.34;100.00
8286;BME280;4181;43.416;24.598;2023-03-12T08:19:39;99874.00;;;10.33;100.00
8286;BME280;4181;43.416;24.598;2023-03-12T08:22:08;99874.91;;;10.97;100.00
8286;BME280;4181;43.416;24.598;2023-03-12T08:24:33;99867.09;;;11.47;100.00
8286;BME280;4181;43.416;24.598;2023-03-12T08:26:59;99882.84;;;11.72;100.00
8286;BME280;4181;43.416;24.598;2023-03-12T08:29:25;99880.28;;;12.02;100.00
8286;BME280;4181;43.416;24.598;2023-03-12T08:31:51;99872.38;;;12.05;100.00
8286;BME280;4181;43.416;24.598;2023-03-12T08:34:16;99849.44;;;12.11;100.00
8286;BME280;4181;43.416;24.598;2023-03-12T08:36:41;99876.59;;;12.38;100.00
8286;BME280;4181;43.416;24.598;2023-03-12T08:39:07;99888.00;;;12.15;100.00
8286;BME280;4181;43.416;24.598;2023-03-12T08:41:32;99877.50;;;11.97;100.00
8286;BME280;4181;43.416;24.598;2023-03-12T08:43:58;99903.38;;;11.74;100.00
8286;BME280;4181;43.416;24.598;2023-03-12T08:46:23;99906.28;;;11.63;100.00
8286;BME280;4181;43.416;24.598;2023-03-12T08:48:49;99908.53;;;11.71;100.00
8286;BME280;4181;43.416;24.598;2023-03-12T08:51:14;99900.97;;;11.83;100.00
8286;BME280;4181;43.416;24.598;2023-03-12T08:53:41;99907.28;;;11.88;100.00
8286;BME280;4181;43.416;24.598;2023-03-12T08:56:06;99894.25;;;12.10;100.00
8286;BME280;4181;43.416;24.598;2023-03-12T08:58:33;99887.50;;;12.28;100.00
8286;BME280;4181;43.416;24.598;2023-03-12T09:00:59;99885.13;;;12.51;100.00
8286;BME280;4181;43.416;24.598;2023-03-12T09:03:26;99883.72;;;12.49;100.00
8286;BME280;4181;43.416;24.598;2023-03-12T09:06:05;99884.91;;;12.83;100.00
8286;BME280;4181;43.416;24.598;2023-03-12T09:08:31;99887.09;;;12.96;100.00
8286;BME280;4181;43.416;24.598;2023-03-12T09:10:58;99887.69;;;13.18;100.00
8286;BME280;4181;43.416;24.598;2023-03-12T09:13:24;99864.13;;;13.27;100.00
8286;BME280;4181;43.416;24.598;2023-03-12T09:15:49;99875.06;;;13.47;100.00
8286;BME280;4181;43.416;24.598;2023-03-12T09:18:14;99867.63;;;13.63;100.00
8286;BME280;4181;43.416;24.598;2023-03-12T09:20:42;99868.63;;;13.97;100.00
8286;BME280;4181;43.416;24.598;2023-03-12T09:23:07;99873.88;;;13.93;100.00
8286;BME280;4181;43.416;24.598;2023-03-12T09:25:33;99875.06;;;13.42;100.00
8286;BME280;4181;43.416;24.598;2023-03-12T09:27:58;99877.22;;;13.55;100.00
8286;BME280;4181;43.416;24.598;2023-03-12T09:30:24;99881.00;;;13.89;100.00
8286;BME280;4181;43.416;24.598;2023-03-12T09:32:51;99877.72;;;13.87;100.00
8286;BME280;4181;43.416;24.598;2023-03-12T09:35:16;99879.44;;;13.63;100.00
8286;BME280;4181;43.416;24.598;2023-03-12T09:37:42;99878.06;;;13.46;100.00
8286;BME280;4181;43.416;24.598;2023-03-12T09:40:15;99874.28;;;13.12;100.00
8286;BME280;4181;43.416;24.598;2023-03-12T09:43:03;99881.63;;;12.86;100.00
8286;BME280;4181;43.416;24.598;2023-03-12T09:45:36;99888.19;;;12.70;100.00
8286;BME280;4181;43.416;24.598;2023-03-12T09:48:06;99899.13;;;12.65;100.00
8286;BME280;4181;43.416;24.598;2023-03-12T09:50:40;99892.28;;;12.77;100.00
8286;BME280;4181;43.416;24.598;2023-03-12T09:55:44;99897.75;;;12.77;100.00
8286;BME280;4181;43.416;24.598;2023-03-12T09:58:21;99867.88;;;12.51;100.00
8286;BME280;4181;43.416;24.598;2023-03-12T10:00:47;99889.22;;;12.59;100.00
8286;BME280;4181;43.416;24.598;2023-03-12T10:05:55;99895.34;;;13.06;100.00
8286;BME280;4181;43.416;24.598;2023-03-12T10:11:18;99906.53;;;12.90;100.00
8286;BME280;4181;43.416;24.598;2023-03-12T10:14:25;99901.63;;;12.97;100.00
8286;BME280;4181;43.416;24.598;2023-03-12T10:17:15;99901.88;;;13.00;100.00
8286;BME280;4181;43.416;24.598;2023-03-12T10:19:55;99902.47;;;13.07;100.00
8286;BME280;4181;43.416;24.598;2023-03-12T10:30:29;99895.88;;;12.93;100.00
8286;BME280;4181;43.416;24.598;2023-03-12T10:32:58;99906.03;;;13.03;100.00
8286;BME280;4181;43.416;24.598;2023-03-12T10:35:27;99906.88;;;13.08;100.00
8286;BME280;4181;43.416;24.598;2023-03-12T10:38:02;99893.94;;;12.99;100.00
8286;BME280;4181;43.416;24.598;2023-03-12T10:40:30;99906.81;;;12.93;100.00
8286;BME280;4181;43.416;24.598;2023-03-12T10:42:58;99902.97;;;12.94;100.00
8286;BME280;4181;43.416;24.598;2023-03-12T10:45:35;99904.59;;;12.95;100.00
8286;BME280;4181;43.416;24.598;2023-03-12T10:48:05;99886.59;;;13.09;100.00
8286;BME280;4181;43.416;24.598;2023-03-12T10:50:35;99875.06;;;13.47;100.00
8286;BME280;4181;43.416;24.598;2023-03-12T10:53:23;99866.81;;;13.62;100.00
8286;BME280;4181;43.416;24.598;2023-03-12T10:56:11;99859.97;;;13.65;100.00
8286;BME280;4181;43.416;24.598;2023-03-12T11:01:04;99850.94;;;13.49;100.00
8286;BME280;4181;43.416;24.598;2023-03-12T11:03:30;99864.66;;;13.34;100.00
8286;BME280;4181;43.416;24.598;2023-03-12T11:06:01;99854.81;;;13.28;100.00
8286;BME280;4181;43.416;24.598;2023-03-12T11:08:35;99836.44;;;13.34;100.00
8286;BME280;4181;43.416;24.598;2023-03-12T11:11:03;99851.50;;;13.36;100.00
8286;BME280;4181;43.416;24.598;2023-03-12T11:13:30;99857.00;;;13.26;100.00
8286;BME280;4181;43.416;24.598;2023-03-12T11:18:55;99858.34;;;13.29;100.00
8286;BME280;4181;43.416;24.598;2023-03-12T11:21:22;99879.19;;;13.10;100.00
8286;BME280;4181;43.416;24.598;2023-03-12T11:29:23;99869.56;;;12.92;100.00
8286;BME280;4181;43.416;24.598;2023-03-12T11:34:24;99884.91;;;12.93;100.00
8286;BME280;4181;43.416;24.598;2023-03-12T11:46:08;99885.16;;;12.71;100.00
8286;BME280;4181;43.416;24.598;2023-03-12T11:56:52;99879.41;;;12.68;100.00
8286;BME280;4181;43.416;24.598;2023-03-12T12:05:09;99870.13;;;12.94;100.00
8286;BME280;4181;43.416;24.598;2023-03-12T12:11:17;99845.75;;;13.38;100.00
8286;BME280;4181;43.416;24.598;2023-03-12T12:14:03;99860.81;;;13.45;100.00
8286;BME280;4181;43.416;24.598;2023-03-12T12:19:47;99852.88;;;13.34;100.00
8286;BME280;4181;43.416;24.598;2023-03-12T12:25:34;99870.38;;;13.63;100.00
8286;BME280;4181;43.416;24.598;2023-03-12T12:36:33;99869.59;;;13.07;100.00
8286;BME280;4181;43.416;24.598;2023-03-12T12:39:14;99877.25;;;13.10;100.00
8286;BME280;4181;43.416;24.598;2023-03-12T12:41:50;99891.50;;;13.02;100.00
8286;BME280;4181;43.416;24.598;2023-03-12T12:44:22;99881.09;;;13.04;100.00
8286;BME280;4181;43.416;24.598;2023-03-12T12:46:54;99889.06;;;13.06;100.00
8286;BME280;4181;43.416;24.598;2023-03-12T12:49:45;99899.19;;;13.05;100.00
8286;BME280;4181;43.416;24.598;2023-03-12T12:52:14;99907.09;;;12.87;100.00
8286;BME280;4181;43.416;24.598;2023-03-12T12:57:49;99907.34;;;12.95;100.00
8286;BME280;4181;43.416;24.598;2023-03-12T13:00:42;99908.16;;;12.86;100.00
8286;BME280;4181;43.416;24.598;2023-03-12T13:03:28;99907.31;;;12.65;100.00
8286;BME280;4181;43.416;24.598;2023-03-12T13:05:59;99915.56;;;12.75;100.00
8286;BME280;4181;43.416;24.598;2023-03-12T13:14:12;99911.78;;;13.01;100.00
8286;BME280;4181;43.416;24.598;2023-03-12T13:16:44;99899.72;;;13.12;100.00
8286;BME280;4181;43.416;24.598;2023-03-12T13:26:59;99896.41;;;13.65;100.00
8286;BME280;4181;43.416;24.598;2023-03-12T13:31:56;99886.56;;;13.59;100.00
8286;BME280;4181;43.416;24.598;2023-03-12T13:36:54;99896.97;;;13.62;100.00
8286;BME280;4181;43.416;24.598;2023-03-12T13:39:34;99898.31;;;13.80;100.00
8286;BME280;4181;43.416;24.598;2023-03-12T13:42:24;99894.16;;;13.87;100.00
8286;BME280;4181;43.416;24.598;2023-03-12T13:44:46;99909.53;;;13.83;100.00
8286;BME280;4181;43.416;24.598;2023-03-12T13:47:26;99889.50;;;13.93;100.00
8286;BME280;4181;43.416;24.598;2023-03-12T13:49:56;99903.75;;;13.95;100.00
8286;BME280;4181;43.416;24.598;2023-03-12T13:52:30;99900.19;;;13.94;100.00
8286;BME280;4181;43.416;24.598;2023-03-12T13:55:04;99909.53;;;13.93;100.00
8286;BME280;4181;43.416;24.598;2023-03-12T14:00:03;99923.00;;;13.75;100.00
8286;BME280;4181;43.416;24.598;2023-03-12T14:02:36;99925.75;;;13.65;100.00
8286;BME280;4181;43.416;24.598;2023-03-12T14:05:09;99932.06;;;13.40;100.00
8286;BME280;4181;43.416;24.598;2023-03-12T14:10:45;99933.97;;;13.05;100.00
8286;BME280;4181;43.416;24.598;2023-03-12T14:13:32;99933.16;;;13.29;100.00
8286;BME280;4181;43.416;24.598;2023-03-12T14:19:06;99951.78;;;13.22;100.00
8286;BME280;4181;43.416;24.598;2023-03-12T14:21:39;99920.84;;;13.17;100.00
8286;BME280;4181;43.416;24.598;2023-03-12T14:24:06;99926.34;;;13.42;100.00
8286;BME280;4181;43.416;24.598;2023-03-12T14:26:37;99934.28;;;13.48;100.00
8286;BME280;4181;43.416;24.598;2023-03-12T14:29:14;99920.00;;;13.46;100.00
8286;BME280;4181;43.416;24.598;2023-03-12T14:31:44;99932.03;;;13.55;100.00
8286;BME280;4181;43.416;24.598;2023-03-12T14:36:58;99949.88;;;13.43;100.00
8286;BME280;4181;43.416;24.598;2023-03-12T14:42:05;99953.97;;;13.45;100.00
8286;BME280;4181;43.416;24.598;2023-03-12T14:44:35;99957.28;;;13.27;100.00
8286;BME280;4181;43.416;24.598;2023-03-12T14:47:06;99944.94;;;13.20;100.00
8286;BME280;4181;43.416;24.598;2023-03-12T14:49:47;99967.66;;;13.25;100.00
8286;BME280;4181;43.416;24.598;2023-03-12T14:52:24;99972.81;;;12.87;100.00
8286;BME280;4181;43.416;24.598;2023-03-12T14:55:03;99955.00;;;12.84;100.00
8286;BME280;4181;43.416;24.598;2023-03-12T14:57:29;99970.09;;;12.92;100.00
8286;BME280;4181;43.416;24.598;2023-03-12T14:59:59;99973.34;;;12.94;100.00
8286;BME280;4181;43.416;24.598;2023-03-12T15:02:26;99973.03;;;12.70;100.00
8286;BME280;4181;43.416;24.598;2023-03-12T15:04:56;99976.88;;;12.79;100.00
8286;BME280;4181;43.416;24.598;2023-03-12T15:07:30;99991.09;;;12.71;100.00
8286;BME280;4181;43.416;24.598;2023-03-12T15:09:57;99989.44;;;12.65;100.00
8286;BME280;4181;43.416;24.598;2023-03-12T15:12:24;99994.91;;;12.65;100.00